Welcome to the updated website with new and more accurate equipment. Established 2007


Active alerts


No alerts

Local Station more information Local Station


Mount Mesnard more information Mount Mesnard


Visit our other weather sites:

Template documentation
and downloads

And another site


CBI


Nearby METAR Reports

   
KSAW - Sawyer, Michigan
Updated: 18-10-2018 01:38
Clear  
Clear  
   Wind: WSW 4.6 mph
Wind: WSW 4.6 mph
Temperature: 23°F
Wind Chill: 17.6°F
Dew Point: 19.4°F
Humidity: 86%
Barometer: 30.38 inHg
Clouds: Clear
Visibility: 10 mi
Cloud details: Clear
KSAW 180538Z AUTO 24004KT 10SM CLR M05/M07 A3038 RMK AO2 T10461075
KESC - Escanaba, Michigan
Updated: 18-10-2018 00:56
Clear  
Clear  
   Wind: West 3.5 mph
Wind: West 3.5 mph
Temperature: 24.8°F
Wind Chill: 19.4°F
Dew Point: 21.2°F
Humidity: 86%
Barometer: 30.43 inHg
Clouds: Clear
Visibility: 10 mi
Cloud details: Clear
KESC 180456Z AUTO 26003KT 10SM CLR M04/M06 A3043 RMK AO2 SLP333 T10391056 400611044 FZRANO
KIMT - Iron Mountain, MI
Updated: 18-10-2018 00:54
Clear  
Clear  
   Wind: Calm
Wind: Calm
Temperature: 21.2°F
Dew Point: 17.6°F
Humidity: 86%
Barometer: 30.4 inHg
Clouds: Clear
Visibility: 10 mi
Cloud details: Clear
KIMT 180454Z AUTO 00000KT 10SM CLR M06/M08 A3040 RMK AO2 SLP311 T10611083
KGRB - Green Bay, WI
Updated: 18-10-2018 00:53
Clear  
Clear  
   Wind: West 3.5 mph
Wind: West 3.5 mph
Temperature: 30.2°F
Wind Chill: 26.6°F
Dew Point: 24.8°F
Humidity: 80%
Barometer: 30.46 inHg
Clouds: Clear
Visibility: 10 mi
Cloud details: Clear
KGRB 180453Z AUTO 27003KT 10SM CLR M01/M04 A3046 RMK AO2 SLP323 T10111039
KDET - Detroit, MI
Updated: 18-10-2018 00:53
Clear  
Clear  
   Wind: North 3.5 mph
Wind: North 3.5 mph
Temperature: 35.6°F
Wind Chill: 33.8°F
Dew Point: 24.8°F
Humidity: 65%
Barometer: 30.42 inHg
Clouds: Clear
Visibility: 10 mi
Cloud details: Clear
KDET 180453Z 35003KT 10SM CLR 02/M04 A3042 RMK AO2 SLP305 T00221039 401000022
 

Script developed by  Saratoga-weather.org Adapted for the template by  Weerstation Leuven

You find our weather info also at:

Weather Underground

Midwestern Weather Network

WeatherlinkIP

Citizen Weather Observer Program (CWOP)

Equipment we use:

Weather-station
Davis VP2

Weather-program
Davis Weatherlink.Com

Davis VP2

Davis Weatherlink.Com